Main page
METAR-TAF:

METAR-TAF

Airports :

Jersey Airport

Jersey,

latitude: 49-13N, longitude: 002-12W, elevation: 84 m

Current weather observation

The report was made 29 minutes ago, at 01:20 UTC
Wind 24 kt from the West
Temperature 7°C
Humidity 76%
Pressure 1025 hPa
Visibility 10 km or more
light rain showers

METAR: EGJJ 180120Z AUTO 26024KT 9999 -SHRA FEW019/// SCT030/// BKN037/// 07/03 Q1025 RESHRA

Time: 01:49 (01:49 UTC)

Forecast

The report was made 2 hours and 51 minutes ago, at 22:58 UTC
Forecast valid from 18 at 00 UTC to 18 at 09 UTC
Wind 16 kt from the West
Visibility 10 km or more
Few clouds at a height of 2000 ft
Probability 30% :
Temporary
from 18 at 00 UTC to 18 at 05 UTC
Visibility: 7000 m
rain showers
Probability 40% :
Temporary
from 18 at 05 UTC to 18 at 09 UTC
Visibility: 5000 m
Broken clouds at a height of 1000 ft
rain showers

TAF: EGJJ 172258Z 1800/1809 26016KT 9999 FEW020 PROB30 TEMPO 1800/1805 7000 SHRA PROB40 TEMPO 1805/1809 5000 SHRA BKN010

Weather observations and forecasts of more than 4000 airports (METAR and TAF reports).

The available stations are represented by yellow and red dots on the map.

Hover mouse over dot to see the name of the station.

Then click to see weather observations and forecasts.

To change the map : click on the green buttons with a black cross to zoom in, on the green button with a dash to zoom out, or on the green arrows for adjacent maps.


METAR-TAF: